sensor_id;sensor_type;location;lat;lon;timestamp;pressure;altitude;pressure_sealevel;temperature;humidity
77041;BME280;65974;42.664;23.264;2023-03-01T00:01:20;94833.22;;;5.46;81.55
77041;BME280;65974;42.664;23.264;2023-03-01T00:03:46;94826.84;;;5.47;81.84
77041;BME280;65974;42.664;23.264;2023-03-01T00:06:11;94819.72;;;5.35;81.57
77041;BME280;65974;42.664;23.264;2023-03-01T00:08:37;94827.75;;;5.39;81.60
77041;BME280;65974;42.664;23.264;2023-03-01T00:13:39;94817.81;;;5.48;81.73
77041;BME280;65974;42.664;23.264;2023-03-01T00:16:06;94817.50;;;5.37;81.89
77041;BME280;65974;42.664;23.264;2023-03-01T00:18:32;94815.50;;;5.46;81.87
77041;BME280;65974;42.664;23.264;2023-03-01T00:20:58;94808.50;;;5.38;81.68
77041;BME280;65974;42.664;23.264;2023-03-01T00:23:23;94808.50;;;5.38;81.87
77041;BME280;65974;42.664;23.264;2023-03-01T00:25:49;94800.91;;;5.37;81.24
77041;BME280;65974;42.664;23.264;2023-03-01T00:28:15;94798.59;;;5.35;81.79
77041;BME280;65974;42.664;23.264;2023-03-01T00:30:41;94785.91;;;5.41;81.38
77041;BME280;65974;42.664;23.264;2023-03-01T00:33:06;94783.38;;;5.44;81.00
77041;BME280;65974;42.664;23.264;2023-03-01T00:35:32;94781.66;;;5.36;81.41
77041;BME280;65974;42.664;23.264;2023-03-01T00:37:58;94781.31;;;5.38;80.95
77041;BME280;65974;42.664;23.264;2023-03-01T00:40:24;94786.94;;;5.36;81.26
77041;BME280;65974;42.664;23.264;2023-03-01T00:42:50;94786.25;;;5.39;80.89
77041;BME280;65974;42.664;23.264;2023-03-01T00:45:15;94787.38;;;5.38;80.86
77041;BME280;65974;42.664;23.264;2023-03-01T00:47:41;94786.94;;;5.36;80.74
77041;BME280;65974;42.664;23.264;2023-03-01T00:50:07;94781.97;;;5.35;81.03
77041;BME280;65974;42.664;23.264;2023-03-01T00:52:34;94775.84;;;5.31;80.80
77041;BME280;65974;42.664;23.264;2023-03-01T00:54:59;94776.25;;;5.33;80.92
77041;BME280;65974;42.664;23.264;2023-03-01T00:57:25;94772.53;;;5.34;80.71
77041;BME280;65974;42.664;23.264;2023-03-01T00:59:50;94778.47;;;5.31;80.84
77041;BME280;65974;42.664;23.264;2023-03-01T01:02:18;94780.69;;;5.29;81.02
77041;BME280;65974;42.664;23.264;2023-03-01T01:04:44;94786.31;;;5.27;81.19
77041;BME280;65974;42.664;23.264;2023-03-01T01:07:09;94792.66;;;5.38;80.48
77041;BME280;65974;42.664;23.264;2023-03-01T01:09:35;94784.88;;;5.30;80.70
77041;BME280;65974;42.664;23.264;2023-03-01T01:12:00;94794.75;;;5.33;80.67
77041;BME280;65974;42.664;23.264;2023-03-01T01:14:26;94788.69;;;5.32;80.70
77041;BME280;65974;42.664;23.264;2023-03-01T01:16:52;94785.63;;;5.30;80.40
77041;BME280;65974;42.664;23.264;2023-03-01T01:19:17;94782.22;;;5.30;80.84
77041;BME280;65974;42.664;23.264;2023-03-01T01:21:43;94787.50;;;5.30;80.52
77041;BME280;65974;42.664;23.264;2023-03-01T01:24:08;94791.94;;;5.26;80.59
77041;BME280;65974;42.664;23.264;2023-03-01T01:26:34;94788.81;;;5.24;80.56
77041;BME280;65974;42.664;23.264;2023-03-01T01:29:03;94785.63;;;5.30;79.80
77041;BME280;65974;42.664;23.264;2023-03-01T01:31:30;94789.91;;;5.35;80.61
77041;BME280;65974;42.664;23.264;2023-03-01T01:33:56;94791.34;;;5.32;80.11
77041;BME280;65974;42.664;23.264;2023-03-01T01:36:22;94794.88;;;5.24;79.79
77041;BME280;65974;42.664;23.264;2023-03-01T01:38:48;94792.16;;;5.21;80.17
77041;BME280;65974;42.664;23.264;2023-03-01T01:41:14;94801.59;;;5.22;80.14
77041;BME280;65974;42.664;23.264;2023-03-01T01:43:42;94807.66;;;5.22;80.50
77041;BME280;65974;42.664;23.264;2023-03-01T01:49:04;94813.72;;;5.23;80.30
77041;BME280;65974;42.664;23.264;2023-03-01T01:51:35;94806.31;;;5.28;80.22
77041;BME280;65974;42.664;23.264;2023-03-01T01:54:07;94798.63;;;5.23;79.76
77041;BME280;65974;42.664;23.264;2023-03-01T01:56:34;94797.22;;;5.26;79.73
77041;BME280;65974;42.664;23.264;2023-03-01T01:59:01;94793.78;;;5.25;79.24
77041;BME280;65974;42.664;23.264;2023-03-01T02:01:27;94790.16;;;5.18;79.29
77041;BME280;65974;42.664;23.264;2023-03-01T02:03:52;94789.16;;;5.22;79.81
77041;BME280;65974;42.664;23.264;2023-03-01T02:06:42;94778.59;;;5.22;79.18
77041;BME280;65974;42.664;23.264;2023-03-01T02:09:13;94774.44;;;5.21;79.13
77041;BME280;65974;42.664;23.264;2023-03-01T02:11:40;94774.44;;;5.21;78.87
77041;BME280;65974;42.664;23.264;2023-03-01T02:14:06;94762.75;;;5.22;78.75
77041;BME280;65974;42.664;23.264;2023-03-01T02:16:32;94763.97;;;5.25;78.69
77041;BME280;65974;42.664;23.264;2023-03-01T02:18:58;94769.38;;;5.16;79.34
77041;BME280;65974;42.664;23.264;2023-03-01T02:24:22;94764.44;;;5.15;79.04
77041;BME280;65974;42.664;23.264;2023-03-01T02:26:52;94766.41;;;5.18;78.92
77041;BME280;65974;42.664;23.264;2023-03-01T02:29:20;94765.97;;;5.16;78.39
77041;BME280;65974;42.664;23.264;2023-03-01T02:31:47;94768.31;;;5.17;78.59
77041;BME280;65974;42.664;23.264;2023-03-01T02:34:15;94778.09;;;5.17;78.51
77041;BME280;65974;42.664;23.264;2023-03-01T02:39:13;94773.56;;;5.17;78.74
77041;BME280;65974;42.664;23.264;2023-03-01T02:41:46;94775.56;;;5.08;78.65
77041;BME280;65974;42.664;23.264;2023-03-01T02:44:12;94775.66;;;5.12;78.79
77041;BME280;65974;42.664;23.264;2023-03-01T02:46:43;94775.66;;;5.12;78.92
77041;BME280;65974;42.664;23.264;2023-03-01T02:51:56;94778.22;;;5.08;78.72
77041;BME280;65974;42.664;23.264;2023-03-01T02:54:35;94763.81;;;5.06;78.78
77041;BME280;65974;42.664;23.264;2023-03-01T02:57:02;94771.63;;;5.02;78.81
77041;BME280;65974;42.664;23.264;2023-03-01T02:59:31;94770.84;;;5.02;79.27
77041;BME280;65974;42.664;23.264;2023-03-01T03:02:00;94771.06;;;4.97;79.23
77041;BME280;65974;42.664;23.264;2023-03-01T03:04:25;94765.16;;;5.00;79.13
77041;BME280;65974;42.664;23.264;2023-03-01T03:06:51;94769.75;;;5.03;79.18
77041;BME280;65974;42.664;23.264;2023-03-01T03:09:17;94759.31;;;4.94;80.01
77041;BME280;65974;42.664;23.264;2023-03-01T03:11:43;94761.72;;;4.99;80.04
77041;BME280;65974;42.664;23.264;2023-03-01T03:14:10;94761.09;;;4.90;80.02
77041;BME280;65974;42.664;23.264;2023-03-01T03:16:44;94771.31;;;4.92;80.09
77041;BME280;65974;42.664;23.264;2023-03-01T03:19:10;94774.84;;;4.96;80.08
77041;BME280;65974;42.664;23.264;2023-03-01T03:21:36;94775.81;;;4.91;79.90
77041;BME280;65974;42.664;23.264;2023-03-01T03:24:02;94767.78;;;4.88;80.59
77041;BME280;65974;42.664;23.264;2023-03-01T03:26:28;94765.84;;;4.85;81.03
77041;BME280;65974;42.664;23.264;2023-03-01T03:28:54;94759.00;;;4.84;80.72
77041;BME280;65974;42.664;23.264;2023-03-01T03:31:19;94758.47;;;4.78;80.71
77041;BME280;65974;42.664;23.264;2023-03-01T03:33:45;94754.06;;;4.82;80.92
77041;BME280;65974;42.664;23.264;2023-03-01T03:36:16;94764.28;;;4.84;80.64
77041;BME280;65974;42.664;23.264;2023-03-01T03:38:43;94756.81;;;4.86;80.91
77041;BME280;65974;42.664;23.264;2023-03-01T03:41:09;94772.53;;;4.82;80.79
77041;BME280;65974;42.664;23.264;2023-03-01T03:46:37;94768.03;;;4.83;80.75
77041;BME280;65974;42.664;23.264;2023-03-01T03:49:03;94768.69;;;4.80;80.83
77041;BME280;65974;42.664;23.264;2023-03-01T03:51:28;94753.41;;;4.73;81.46
77041;BME280;65974;42.664;23.264;2023-03-01T03:53:53;94753.41;;;4.73;80.82
77041;BME280;65974;42.664;23.264;2023-03-01T03:56:19;94753.41;;;4.73;81.17
77041;BME280;65974;42.664;23.264;2023-03-01T03:58:44;94756.84;;;4.73;81.06
77041;BME280;65974;42.664;23.264;2023-03-01T04:01:09;94753.84;;;4.75;80.89
77041;BME280;65974;42.664;23.264;2023-03-01T04:03:35;94755.75;;;4.75;81.31
77041;BME280;65974;42.664;23.264;2023-03-01T04:06:01;94770.78;;;4.74;81.23
77041;BME280;65974;42.664;23.264;2023-03-01T04:08:27;94761.34;;;4.73;81.00
77041;BME280;65974;42.664;23.264;2023-03-01T04:11:00;94771.13;;;4.72;81.29
77041;BME280;65974;42.664;23.264;2023-03-01T04:13:45;94773.88;;;4.76;80.73
77041;BME280;65974;42.664;23.264;2023-03-01T04:16:11;94767.59;;;4.68;80.84
77041;BME280;65974;42.664;23.264;2023-03-01T04:18:36;94773.00;;;4.72;81.34
77041;BME280;65974;42.664;23.264;2023-03-01T04:21:02;94770.03;;;4.73;81.08
77041;BME280;65974;42.664;23.264;2023-03-01T04:23:27;94762.44;;;4.72;81.37
77041;BME280;65974;42.664;23.264;2023-03-01T04:25:55;94774.00;;;4.67;80.95
77041;BME280;65974;42.664;23.264;2023-03-01T04:28:27;94769.94;;;4.70;81.45
77041;BME280;65974;42.664;23.264;2023-03-01T04:30:54;94763.78;;;4.66;81.84
77041;BME280;65974;42.664;23.264;2023-03-01T04:33:20;94771.25;;;4.64;81.58
77041;BME280;65974;42.664;23.264;2023-03-01T04:35:45;94770.47;;;4.63;81.80
77041;BME280;65974;42.664;23.264;2023-03-01T04:38:11;94770.13;;;4.65;81.18
77041;BME280;65974;42.664;23.264;2023-03-01T04:40:37;94766.19;;;4.59;81.19
77041;BME280;65974;42.664;23.264;2023-03-01T04:43:03;94761.34;;;4.61;81.24
77041;BME280;65974;42.664;23.264;2023-03-01T04:45:28;94769.38;;;4.64;81.15
77041;BME280;65974;42.664;23.264;2023-03-01T04:47:54;94760.69;;;4.64;81.65
77041;BME280;65974;42.664;23.264;2023-03-01T04:50:19;94758.28;;;4.59;81.50
77041;BME280;65974;42.664;23.264;2023-03-01T04:52:46;94758.63;;;4.57;81.88
77041;BME280;65974;42.664;23.264;2023-03-01T04:55:13;94758.69;;;4.73;81.12
77041;BME280;65974;42.664;23.264;2023-03-01T04:57:38;94753.66;;;4.68;81.42
77041;BME280;65974;42.664;23.264;2023-03-01T05:00:06;94745.63;;;4.64;81.53
77041;BME280;65974;42.664;23.264;2023-03-01T05:02:46;94756.94;;;4.65;81.19
77041;BME280;65974;42.664;23.264;2023-03-01T05:05:13;94752.78;;;4.64;81.45
77041;BME280;65974;42.664;23.264;2023-03-01T05:07:38;94750.34;;;4.71;81.27
77041;BME280;65974;42.664;23.264;2023-03-01T05:10:04;94752.22;;;4.70;81.09
77041;BME280;65974;42.664;23.264;2023-03-01T05:12:29;94763.78;;;4.66;81.15
77041;BME280;65974;42.664;23.264;2023-03-01T05:14:55;94762.53;;;4.76;80.73
77041;BME280;65974;42.664;23.264;2023-03-01T05:17:20;94761.75;;;4.75;80.61
77041;BME280;65974;42.664;23.264;2023-03-01T05:19:45;94765.84;;;4.72;80.59
77041;BME280;65974;42.664;23.264;2023-03-01T05:22:11;94769.69;;;4.75;80.49
77041;BME280;65974;42.664;23.264;2023-03-01T05:24:37;94764.41;;;4.75;80.42
77041;BME280;65974;42.664;23.264;2023-03-01T05:27:03;94764.84;;;4.77;80.55
77041;BME280;65974;42.664;23.264;2023-03-01T05:29:31;94758.03;;;4.76;80.44
77041;BME280;65974;42.664;23.264;2023-03-01T05:32:00;94762.88;;;4.74;80.85
77041;BME280;65974;42.664;23.264;2023-03-01T05:34:33;94761.03;;;4.75;80.98
77041;BME280;65974;42.664;23.264;2023-03-01T05:36:59;94756.41;;;4.71;80.86
77041;BME280;65974;42.664;23.264;2023-03-01T05:39:26;94761.34;;;4.73;80.55
77041;BME280;65974;42.664;23.264;2023-03-01T05:41:54;94765.19;;;4.76;80.35
77041;BME280;65974;42.664;23.264;2023-03-01T05:44:20;94762.66;;;4.79;80.39
77041;BME280;65974;42.664;23.264;2023-03-01T05:46:46;94755.84;;;4.78;80.54
77041;BME280;65974;42.664;23.264;2023-03-01T05:49:12;94758.69;;;4.73;80.13
77041;BME280;65974;42.664;23.264;2023-03-01T05:51:39;94776.16;;;4.78;79.99
77041;BME280;65974;42.664;23.264;2023-03-01T05:54:04;94776.50;;;4.76;79.96
77041;BME280;65974;42.664;23.264;2023-03-01T05:56:33;94794.63;;;4.90;79.72
77041;BME280;65974;42.664;23.264;2023-03-01T05:58:59;94787.03;;;4.88;79.21
77041;BME280;65974;42.664;23.264;2023-03-01T06:01:25;94798.03;;;4.90;79.22
77041;BME280;65974;42.664;23.264;2023-03-01T06:03:50;94805.28;;;4.93;78.95
77041;BME280;65974;42.664;23.264;2023-03-01T06:06:16;94805.94;;;4.90;79.10
77041;BME280;65974;42.664;23.264;2023-03-01T06:08:41;94795.81;;;4.92;79.25
77041;BME280;65974;42.664;23.264;2023-03-01T06:11:07;94806.81;;;4.94;79.18
77041;BME280;65974;42.664;23.264;2023-03-01T06:13:32;94813.22;;;4.93;78.97
77041;BME280;65974;42.664;23.264;2023-03-01T06:15:58;94806.38;;;4.92;78.62
77041;BME280;65974;42.664;23.264;2023-03-01T06:18:23;94814.94;;;5.01;78.66
77041;BME280;65974;42.664;23.264;2023-03-01T06:20:53;94821.78;;;5.02;78.38
77041;BME280;65974;42.664;23.264;2023-03-01T06:23:18;94820.66;;;5.03;78.12
77041;BME280;65974;42.664;23.264;2023-03-01T06:25:44;94819.69;;;4.96;78.88
77041;BME280;65974;42.664;23.264;2023-03-01T06:28:09;94820.69;;;4.91;78.75
77041;BME280;65974;42.664;23.264;2023-03-01T06:30:35;94822.78;;;4.98;78.47
77041;BME280;65974;42.664;23.264;2023-03-01T06:33:00;94814.72;;;5.06;78.56
77041;BME280;65974;42.664;23.264;2023-03-01T06:35:26;94822.09;;;5.01;78.85
77041;BME280;65974;42.664;23.264;2023-03-01T06:37:55;94825.50;;;5.01;78.91
77041;BME280;65974;42.664;23.264;2023-03-01T06:40:20;94825.94;;;5.03;79.08
77041;BME280;65974;42.664;23.264;2023-03-01T06:42:50;94821.66;;;4.99;78.91
77041;BME280;65974;42.664;23.264;2023-03-01T06:45:17;94821.44;;;5.04;79.04
77041;BME280;65974;42.664;23.264;2023-03-01T06:47:43;94819.16;;;5.02;79.00
77041;BME280;65974;42.664;23.264;2023-03-01T06:50:09;94821.53;;;5.07;78.55
77041;BME280;65974;42.664;23.264;2023-03-01T06:52:34;94821.09;;;5.05;78.30
77041;BME280;65974;42.664;23.264;2023-03-01T06:55:00;94825.72;;;5.08;78.62
77041;BME280;65974;42.664;23.264;2023-03-01T06:57:26;94826.81;;;5.07;78.60
77041;BME280;65974;42.664;23.264;2023-03-01T06:59:52;94823.53;;;5.10;78.13
77041;BME280;65974;42.664;23.264;2023-03-01T07:02:18;94822.84;;;5.13;78.56
77041;BME280;65974;42.664;23.264;2023-03-01T07:04:43;94817.25;;;5.15;78.22
77041;BME280;65974;42.664;23.264;2023-03-01T07:07:09;94828.59;;;5.15;77.64
77041;BME280;65974;42.664;23.264;2023-03-01T07:09:35;94823.50;;;5.22;77.52
77041;BME280;65974;42.664;23.264;2023-03-01T07:12:01;94824.19;;;5.19;76.93
77041;BME280;65974;42.664;23.264;2023-03-01T07:14:26;94814.78;;;5.22;76.57
77041;BME280;65974;42.664;23.264;2023-03-01T07:16:52;94816.56;;;5.18;77.00
77041;BME280;65974;42.664;23.264;2023-03-01T07:19:18;94822.84;;;5.25;76.83
77041;BME280;65974;42.664;23.264;2023-03-01T07:21:44;94812.56;;;5.36;77.04
77041;BME280;65974;42.664;23.264;2023-03-01T07:24:09;94817.31;;;5.30;77.17
77041;BME280;65974;42.664;23.264;2023-03-01T07:26:35;94811.47;;;5.37;76.45
77041;BME280;65974;42.664;23.264;2023-03-01T07:29:03;94813.78;;;5.38;76.36
77041;BME280;65974;42.664;23.264;2023-03-01T07:31:29;94813.22;;;5.45;76.10
77041;BME280;65974;42.664;23.264;2023-03-01T07:33:55;94810.44;;;5.54;76.14
77041;BME280;65974;42.664;23.264;2023-03-01T07:36:20;94814.16;;;5.53;75.47
77041;BME280;65974;42.664;23.264;2023-03-01T07:38:46;94811.72;;;5.60;75.01
77041;BME280;65974;42.664;23.264;2023-03-01T07:41:11;94808.22;;;5.56;75.66
77041;BME280;65974;42.664;23.264;2023-03-01T07:43:37;94802.69;;;5.61;74.90
77041;BME280;65974;42.664;23.264;2023-03-01T07:46:03;94809.75;;;5.57;74.89
77041;BME280;65974;42.664;23.264;2023-03-01T07:48:29;94810.19;;;5.59;75.54
77041;BME280;65974;42.664;23.264;2023-03-01T07:51:02;94812.34;;;5.69;75.02
77041;BME280;65974;42.664;23.264;2023-03-01T07:53:29;94809.59;;;5.65;75.15
77041;BME280;65974;42.664;23.264;2023-03-01T07:58:28;94801.53;;;5.74;75.49
77041;BME280;65974;42.664;23.264;2023-03-01T08:00:53;94806.16;;;5.77;74.93
77041;BME280;65974;42.664;23.264;2023-03-01T08:03:19;94799.31;;;5.76;74.48
77041;BME280;65974;42.664;23.264;2023-03-01T08:05:44;94802.50;;;5.81;73.92
77041;BME280;65974;42.664;23.264;2023-03-01T08:08:10;94794.19;;;5.95;73.43
77041;BME280;65974;42.664;23.264;2023-03-01T08:10:36;94793.47;;;5.82;73.63
77041;BME280;65974;42.664;23.264;2023-03-01T08:13:01;94797.53;;;5.80;73.67
77041;BME280;65974;42.664;23.264;2023-03-01T08:15:27;94800.28;;;5.83;73.91
77041;BME280;65974;42.664;23.264;2023-03-01T08:17:52;94801.63;;;5.89;73.19
77041;BME280;65974;42.664;23.264;2023-03-01T08:20:18;94796.25;;;6.01;73.05
77041;BME280;65974;42.664;23.264;2023-03-01T08:22:43;94799.28;;;5.88;73.22
77041;BME280;65974;42.664;23.264;2023-03-01T08:25:08;94800.53;;;5.78;73.93
77041;BME280;65974;42.664;23.264;2023-03-01T08:27:34;94801.75;;;5.69;73.68
77041;BME280;65974;42.664;23.264;2023-03-01T08:30:00;94804.91;;;5.59;73.99
77041;BME280;65974;42.664;23.264;2023-03-01T08:32:25;94807.69;;;5.50;74.35
77041;BME280;65974;42.664;23.264;2023-03-01T08:34:50;94799.31;;;5.48;74.98
77041;BME280;65974;42.664;23.264;2023-03-01T08:37:16;94806.75;;;5.58;74.89
77041;BME280;65974;42.664;23.264;2023-03-01T08:39:41;94797.75;;;5.59;74.64
77041;BME280;65974;42.664;23.264;2023-03-01T08:42:07;94799.63;;;5.59;74.69
77041;BME280;65974;42.664;23.264;2023-03-01T08:44:32;94809.13;;;5.75;74.56
77041;BME280;65974;42.664;23.264;2023-03-01T08:46:58;94803.25;;;5.82;74.14
77041;BME280;65974;42.664;23.264;2023-03-01T08:49:25;94792.25;;;5.80;73.21
77041;BME280;65974;42.664;23.264;2023-03-01T08:51:50;94808.81;;;5.77;73.82
77041;BME280;65974;42.664;23.264;2023-03-01T08:54:18;94803.81;;;5.87;73.56
77041;BME280;65974;42.664;23.264;2023-03-01T08:56:46;94804.53;;;6.00;72.60
77041;BME280;65974;42.664;23.264;2023-03-01T08:59:17;94805.16;;;6.09;72.07
77041;BME280;65974;42.664;23.264;2023-03-01T09:01:42;94804.69;;;6.07;71.61
77041;BME280;65974;42.664;23.264;2023-03-01T09:04:11;94797.38;;;6.00;71.70
77041;BME280;65974;42.664;23.264;2023-03-01T09:06:37;94800.94;;;6.08;71.15
77041;BME280;65974;42.664;23.264;2023-03-01T09:09:06;94799.59;;;6.14;71.61
77041;BME280;65974;42.664;23.264;2023-03-01T09:11:33;94801.88;;;6.15;71.60
77041;BME280;65974;42.664;23.264;2023-03-01T09:13:58;94811.56;;;6.23;70.82
77041;BME280;65974;42.664;23.264;2023-03-01T09:16:26;94796.28;;;6.17;71.28
77041;BME280;65974;42.664;23.264;2023-03-01T09:18:54;94804.88;;;6.14;71.23
77041;BME280;65974;42.664;23.264;2023-03-01T09:21:21;94799.84;;;6.09;71.33
77041;BME280;65974;42.664;23.264;2023-03-01T09:23:47;94802.00;;;6.19;71.31
77041;BME280;65974;42.664;23.264;2023-03-01T09:26:19;94785.78;;;6.20;71.50
77041;BME280;65974;42.664;23.264;2023-03-01T09:28:46;94786.19;;;6.22;71.51
77041;BME280;65974;42.664;23.264;2023-03-01T09:31:13;94794.50;;;6.21;71.09
77041;BME280;65974;42.664;23.264;2023-03-01T09:33:40;94794.56;;;6.24;71.66
77041;BME280;65974;42.664;23.264;2023-03-01T09:36:09;94794.13;;;6.22;71.19
77041;BME280;65974;42.664;23.264;2023-03-01T09:38:35;94783.75;;;6.30;71.24
77041;BME280;65974;42.664;23.264;2023-03-01T09:41:01;94776.56;;;6.46;70.89
77041;BME280;65974;42.664;23.264;2023-03-01T09:43:46;94783.06;;;6.48;71.05
77041;BME280;65974;42.664;23.264;2023-03-01T09:46:14;94783.13;;;6.52;70.58
77041;BME280;65974;42.664;23.264;2023-03-01T09:48:59;94781.44;;;6.44;70.92
77041;BME280;65974;42.664;23.264;2023-03-01T09:51:31;94785.34;;;6.50;71.22
77041;BME280;65974;42.664;23.264;2023-03-01T09:53:57;94772.81;;;6.47;70.61
77041;BME280;65974;42.664;23.264;2023-03-01T09:56:41;94767.88;;;6.45;70.94
77041;BME280;65974;42.664;23.264;2023-03-01T09:59:33;94763.50;;;6.53;70.85
77041;BME280;65974;42.664;23.264;2023-03-01T10:04:56;94762.47;;;6.57;70.57
77041;BME280;65974;42.664;23.264;2023-03-01T10:07:48;94760.25;;;6.59;70.69
77041;BME280;65974;42.664;23.264;2023-03-01T10:10:37;94758.81;;;6.62;70.43
77041;BME280;65974;42.664;23.264;2023-03-01T10:13:21;94757.34;;;6.64;70.62
77041;BME280;65974;42.664;23.264;2023-03-01T10:15:53;94761.22;;;6.51;70.97
77041;BME280;65974;42.664;23.264;2023-03-01T10:18:31;94759.00;;;6.53;71.04
77041;BME280;65974;42.664;23.264;2023-03-01T10:21:01;94752.75;;;6.61;70.81
77041;BME280;65974;42.664;23.264;2023-03-01T10:23:29;94750.78;;;6.58;71.23
77041;BME280;65974;42.664;23.264;2023-03-01T10:26:05;94746.09;;;6.52;70.65
77041;BME280;65974;42.664;23.264;2023-03-01T10:29:08;94745.75;;;6.53;70.89
77041;BME280;65974;42.664;23.264;2023-03-01T10:31:47;94747.97;;;6.51;70.92
77041;BME280;65974;42.664;23.264;2023-03-01T10:36:49;94747.09;;;6.63;70.94
77041;BME280;65974;42.664;23.264;2023-03-01T10:39:21;94743.34;;;6.64;70.95
77041;BME280;65974;42.664;23.264;2023-03-01T10:42:19;94739.50;;;6.61;71.09
77041;BME280;65974;42.664;23.264;2023-03-01T10:44:48;94736.03;;;6.57;70.88
77041;BME280;65974;42.664;23.264;2023-03-01T10:47:25;94731.81;;;6.56;71.16
77041;BME280;65974;42.664;23.264;2023-03-01T10:50:03;94731.16;;;6.59;71.25
77041;BME280;65974;42.664;23.264;2023-03-01T10:54:57;94737.41;;;6.51;71.17
77041;BME280;65974;42.664;23.264;2023-03-01T10:57:35;94733.13;;;6.47;71.27
77041;BME280;65974;42.664;23.264;2023-03-01T11:02:51;94739.28;;;6.51;71.59
77041;BME280;65974;42.664;23.264;2023-03-01T11:05:21;94741.06;;;6.47;71.25
77041;BME280;65974;42.664;23.264;2023-03-01T11:07:57;94739.81;;;6.41;71.39
77041;BME280;65974;42.664;23.264;2023-03-01T11:10:25;94751.91;;;6.42;71.39
77041;BME280;65974;42.664;23.264;2023-03-01T11:12:53;94743.19;;;6.41;71.70
77041;BME280;65974;42.664;23.264;2023-03-01T11:15:21;94737.66;;;6.46;71.87
77041;BME280;65974;42.664;23.264;2023-03-01T11:17:47;94741.41;;;6.45;71.13
77041;BME280;65974;42.664;23.264;2023-03-01T11:22:52;94746.09;;;6.52;71.17
77041;BME280;65974;42.664;23.264;2023-03-01T11:25:24;94724.91;;;6.52;71.04
77041;BME280;65974;42.664;23.264;2023-03-01T11:27:51;94728.00;;;6.54;71.09
77041;BME280;65974;42.664;23.264;2023-03-01T11:30:28;94732.59;;;6.57;71.49
77041;BME280;65974;42.664;23.264;2023-03-01T11:35:46;94730.38;;;6.59;71.01
77041;BME280;65974;42.664;23.264;2023-03-01T11:38:23;94728.84;;;6.58;70.79
77041;BME280;65974;42.664;23.264;2023-03-01T11:40:54;94717.50;;;6.57;71.31
77041;BME280;65974;42.664;23.264;2023-03-01T11:43:32;94710.25;;;6.54;71.06
77041;BME280;65974;42.664;23.264;2023-03-01T11:46:13;94712.19;;;6.57;70.88
77041;BME280;65974;42.664;23.264;2023-03-01T11:48:58;94708.84;;;6.60;70.94
77041;BME280;65974;42.664;23.264;2023-03-01T11:57:11;94695.50;;;6.53;71.63
77041;BME280;65974;42.664;23.264;2023-03-01T12:00:02;94695.56;;;6.57;71.48
77041;BME280;65974;42.664;23.264;2023-03-01T12:26:24;94661.69;;;7.00;69.36
77041;BME280;65974;42.664;23.264;2023-03-01T12:51:16;94656.56;;;7.72;66.10
77041;BME280;65974;42.664;23.264;2023-03-01T12:53:48;94656.34;;;7.80;65.90
77041;BME280;65974;42.664;23.264;2023-03-01T12:56:23;94657.19;;;7.88;65.57
77041;BME280;65974;42.664;23.264;2023-03-01T12:59:14;94661.13;;;7.94;65.54
77041;BME280;65974;42.664;23.264;2023-03-01T13:04:52;94663.75;;;7.94;66.20
77041;BME280;65974;42.664;23.264;2023-03-01T13:20:17;94662.09;;;7.86;66.66
77041;BME280;65974;42.664;23.264;2023-03-01T13:22:45;94658.75;;;7.89;66.05
77041;BME280;65974;42.664;23.264;2023-03-01T13:25:17;94664.56;;;7.75;66.24
77041;BME280;65974;42.664;23.264;2023-03-01T13:27:43;94669.22;;;7.82;66.15
77041;BME280;65974;42.664;23.264;2023-03-01T13:35:57;94665.75;;;7.78;66.13
77041;BME280;65974;42.664;23.264;2023-03-01T13:38:46;94671.81;;;7.56;66.88
77041;BME280;65974;42.664;23.264;2023-03-01T13:41:14;94663.88;;;7.56;67.55
77041;BME280;65974;42.664;23.264;2023-03-01T13:43:41;94661.91;;;7.53;67.67
77041;BME280;65974;42.664;23.264;2023-03-01T13:46:16;94664.94;;;7.51;67.65
77041;BME280;65974;42.664;23.264;2023-03-01T13:48:45;94661.31;;;7.40;67.92
77041;BME280;65974;42.664;23.264;2023-03-01T13:51:13;94664.72;;;7.41;68.38
77041;BME280;65974;42.664;23.264;2023-03-01T13:53:44;94655.59;;;7.38;68.12
77041;BME280;65974;42.664;23.264;2023-03-01T13:56:29;94662.34;;;7.36;69.03
77041;BME280;65974;42.664;23.264;2023-03-01T13:59:19;94660.75;;;7.31;68.92
77041;BME280;65974;42.664;23.264;2023-03-01T14:01:53;94663.91;;;7.18;68.73
77041;BME280;65974;42.664;23.264;2023-03-01T14:04:26;94655.22;;;7.17;68.67
77041;BME280;65974;42.664;23.264;2023-03-01T14:07:29;94654.50;;;7.20;68.63
77041;BME280;65974;42.664;23.264;2023-03-01T14:10:02;94646.22;;;7.22;68.98
77041;BME280;65974;42.664;23.264;2023-03-01T14:12:57;94651.16;;;7.23;68.72
77041;BME280;65974;42.664;23.264;2023-03-01T14:15:36;94647.88;;;7.30;68.65
77041;BME280;65974;42.664;23.264;2023-03-01T14:18:07;94648.66;;;7.30;68.95
77041;BME280;65974;42.664;23.264;2023-03-01T14:20:41;94653.03;;;7.23;69.02
77041;BME280;65974;42.664;23.264;2023-03-01T14:23:16;94644.03;;;7.27;69.10
77041;BME280;65974;42.664;23.264;2023-03-01T14:25:57;94650.09;;;7.28;68.94
77041;BME280;65974;42.664;23.264;2023-03-01T14:28:28;94650.34;;;7.42;68.98
77041;BME280;65974;42.664;23.264;2023-03-01T14:30:57;94649.88;;;7.36;69.10
77041;BME280;65974;42.664;23.264;2023-03-01T14:33:31;94640.81;;;7.37;69.19
77041;BME280;65974;42.664;23.264;2023-03-01T14:38:33;94636.50;;;7.29;69.31
77041;BME280;65974;42.664;23.264;2023-03-01T14:41:03;94644.81;;;7.28;69.00
77041;BME280;65974;42.664;23.264;2023-03-01T14:43:29;94636.03;;;7.24;69.34
77041;BME280;65974;42.664;23.264;2023-03-01T14:45:56;94639.22;;;7.14;69.78
77041;BME280;65974;42.664;23.264;2023-03-01T14:48:22;94633.66;;;7.19;69.36
77041;BME280;65974;42.664;23.264;2023-03-01T14:50:48;94636.59;;;7.14;70.13
77041;BME280;65974;42.664;23.264;2023-03-01T14:53:21;94644.47;;;7.10;69.93
77041;BME280;65974;42.664;23.264;2023-03-01T14:55:55;94642.19;;;7.09;70.34
77041;BME280;65974;42.664;23.264;2023-03-01T14:58:23;94639.66;;;6.96;71.16
77041;BME280;65974;42.664;23.264;2023-03-01T15:00:54;94639.19;;;6.91;71.22